Time;durP1;ratioP1;P1;durP2;ratioP2;P2;SDS_P1;SDS_P2;PMS_P1;PMS_P2;Temp;Humidity;BMP_temperature;BMP_pressure;BME280_temperature;BME280_humidity;BME280_pressure;Samples;Min_cycle;Max_cycle;Signal;HPM_P1;HPM_P2
2022/12/23 00:00:18;;;;;;;105.18;25.92;;;7.40;99.90;;;;;;5092967;28;20046;-74
2022/12/23 00:02:44;;;;;;;112.95;27.15;;;7.50;99.90;;;;;;5092039;28;20059;-74
2022/12/23 00:05:11;;;;;;;111.47;25.90;;;7.60;99.90;;;;;;5091954;28;20071;-74
2022/12/23 00:07:36;;;;;;;103.53;28.30;;;7.30;99.90;;;;;;5091710;28;20048;-74
2022/12/23 00:10:02;;;;;;;145.55;29.85;;;7.20;99.90;;;;;;5092698;28;20040;-74
2022/12/23 00:15:13;;;;;;;182.65;29.83;;;8.60;99.90;;;;;;5092711;28;20439;-73
2022/12/23 00:17:45;;;;;;;153.15;27.55;;;7.20;99.90;;;;;;5092541;28;20105;-73
2022/12/23 00:20:13;;;;;;;106.30;26.85;;;7.40;99.90;;;;;;5092532;28;20122;-74
2022/12/23 00:25:39;;;;;;;185.35;28.75;;;8.10;99.90;;;;;;5091776;28;20139;-74
2022/12/23 00:28:22;;;;;;;107.28;26.00;;;7.40;99.90;;;;;;5091452;28;20103;-74
2022/12/23 00:31:17;;;;;;;170.98;27.45;;;7.10;99.90;;;;;;5092273;28;20048;-74
2022/12/23 00:33:44;;;;;;;163.88;26.88;;;7.20;99.90;;;;;;5091021;28;20404;-74
2022/12/23 00:36:30;;;;;;;158.57;29.20;;;6.90;99.90;;;;;;5074110;28;20504;-73
2022/12/23 00:44:27;;;;;;;171.88;30.70;;;7.30;99.90;;;;;;5092252;28;20134;-74
2022/12/23 00:46:52;;;;;;;249.10;32.47;;;6.80;99.90;;;;;;5091136;28;20040;-74
2022/12/23 00:52:05;;;;;;;235.68;30.92;;;7.20;99.90;;;;;;5092066;28;20180;-74
2022/12/23 00:54:31;;;;;;;175.48;29.20;;;7.10;99.90;;;;;;5091794;28;20153;-73
2022/12/23 00:56:57;;;;;;;308.73;33.92;;;7.00;99.90;;;;;;5074243;28;20060;-74
2022/12/23 00:59:22;;;;;;;218.13;29.83;;;8.50;99.90;;;;;;5073906;28;20064;-74
2022/12/23 01:07:17;;;;;;;219.75;33.25;;;6.80;99.90;;;;;;5090957;28;20087;-74
2022/12/23 01:09:43;;;;;;;258.33;34.22;;;6.80;99.90;;;;;;5090312;28;20086;-74
2022/12/23 01:12:09;;;;;;;194.65;33.33;;;6.90;99.90;;;;;;5091929;28;20055;-74
2022/12/23 01:14:35;;;;;;;167.82;34.13;;;7.00;99.90;;;;;;5090851;28;20095;-73
2022/12/23 01:17:01;;;;;;;347.05;39.22;;;6.60;99.90;;;;;;5074004;28;20109;-73
2022/12/23 01:19:27;;;;;;;156.63;32.63;;;7.10;99.90;;;;;;5090824;28;20434;-73
2022/12/23 01:21:53;;;;;;;224.52;35.83;;;6.80;99.90;;;;;;5091841;28;20546;-73
2022/12/23 01:24:19;;;;;;;474.50;44.33;;;6.90;99.90;;;;;;5090505;28;20135;-74
2022/12/23 01:26:44;;;;;;;212.13;36.22;;;7.00;99.90;;;;;;5090766;28;20102;-73
2022/12/23 01:29:10;;;;;;;349.15;40.28;;;6.90;99.90;;;;;;5090209;28;20118;-74
2022/12/23 01:31:41;;;;;;;276.25;38.65;;;7.20;99.90;;;;;;5090189;28;20067;-73
2022/12/23 01:34:07;;;;;;;223.18;35.47;;;6.90;99.90;;;;;;5073684;28;20063;-74
2022/12/23 01:36:33;;;;;;;221.27;37.70;;;7.10;99.90;;;;;;5094114;28;20048;-74
2022/12/23 01:38:59;;;;;;;164.73;33.30;;;7.20;99.90;;;;;;5094143;28;20050;-74
2022/12/23 01:44:48;;;;;;;177.75;31.90;;;7.10;99.90;;;;;;5095671;28;20055;-74
2022/12/23 01:47:38;;;;;;;568.65;42.67;;;7.00;99.90;;;;;;5077484;28;20055;-73
2022/12/23 01:50:10;;;;;;;206.07;34.55;;;7.10;99.90;;;;;;5094422;28;20083;-73
2022/12/23 01:53:05;;;;;;;252.93;37.75;;;6.90;99.90;;;;;;5094166;28;20079;-74
2022/12/23 01:55:35;;;;;;;346.60;39.55;;;7.20;99.90;;;;;;5092989;28;20548;-73
2022/12/23 01:58:10;;;;;;;336.15;38.83;;;6.70;99.90;;;;;;5095347;28;20110;-73
2022/12/23 02:11:40;;;;;;;224.88;34.13;;;7.10;99.90;;;;;;5095085;28;20048;-73
2022/12/23 02:17:22;;;;;;;334.30;36.95;;;6.70;99.90;;;;;;5094953;28;20059;-73
2022/12/23 02:19:50;;;;;;;367.27;36.83;;;7.20;99.90;;;;;;5094986;28;20052;-73
2022/12/23 02:22:19;;;;;;;317.48;33.67;;;7.30;99.90;;;;;;5093322;28;20122;-73
2022/12/23 02:25:03;;;;;;;404.27;37.58;;;7.20;99.90;;;;;;5093558;28;20052;-73
2022/12/23 02:27:53;;;;;;;484.15;35.50;;;6.70;99.90;;;;;;5093672;28;20135;-73
2022/12/23 02:30:30;;;;;;;494.98;38.45;;;7.30;99.90;;;;;;5094600;28;20047;-73
2022/12/23 02:33:03;;;;;;;539.95;38.10;;;6.80;99.90;;;;;;5094636;28;20064;-73
2022/12/23 02:35:54;;;;;;;776.33;43.40;;;7.00;99.90;;;;;;5094327;28;20490;-73
2022/12/23 02:38:37;;;;;;;750.10;43.22;;;7.10;99.90;;;;;;5094518;28;20051;-73
2022/12/23 02:41:18;;;;;;;665.08;42.40;;;7.10;99.90;;;;;;5094479;28;20127;-73
2022/12/23 02:43:58;;;;;;;700.42;41.92;;;6.90;99.90;;;;;;5093089;28;20079;-73
2022/12/23 02:46:41;;;;;;;622.95;40.92;;;6.90;99.90;;;;;;5093369;28;20048;-73
2022/12/23 02:49:14;;;;;;;710.60;41.47;;;6.90;99.90;;;;;;5094334;28;20454;-74
2022/12/23 02:51:44;;;;;;;822.63;43.42;;;6.20;99.90;;;;;;5093976;28;20044;-73
2022/12/23 02:54:16;;;;;;;377.70;34.40;;;7.10;99.90;;;;;;5093186;28;20059;-73
2022/12/23 02:56:46;;;;;;;427.30;33.42;;;7.00;99.90;;;;;;5094267;28;20070;-73
2022/12/23 02:59:19;;;;;;;307.23;30.65;;;6.70;99.90;;;;;;5094133;28;20510;-73
2022/12/23 03:01:45;;;;;;;256.90;30.55;;;7.00;99.90;;;;;;5094096;28;20044;-73
2022/12/23 03:04:11;;;;;;;;;;;7.10;99.90;;;;;;5094423;28;20472;-73
2022/12/23 03:06:40;;;;;;;435.90;36.20;;;7.10;99.90;;;;;;5093707;28;19927;-73
2022/12/23 03:09:07;;;;;;;480.73;39.38;;;7.20;99.90;;;;;;5094127;28;20483;-73
2022/12/23 03:11:38;;;;;;;302.92;35.22;;;6.80;99.90;;;;;;5093784;28;20048;-73
2022/12/23 03:14:04;;;;;;;413.58;35.17;;;7.10;99.90;;;;;;5093858;28;20377;-73
2022/12/23 03:16:51;;;;;;;535.58;40.22;;;6.90;99.90;;;;;;5093746;28;20050;-73
2022/12/23 03:19:52;;;;;;;503.67;39.33;;;6.90;99.90;;;;;;5093410;28;20063;-73
2022/12/23 03:22:38;;;;;;;471.90;35.30;;;6.80;99.90;;;;;;5060208;28;20140;-73
2022/12/23 03:25:32;;;;;;;323.15;35.00;;;6.80;99.90;;;;;;5093654;28;20054;-73
2022/12/23 03:28:19;;;;;;;269.05;33.08;;;6.80;99.90;;;;;;5093618;28;20044;-73
2022/12/23 03:30:51;;;;;;;270.75;33.72;;;7.00;99.90;;;;;;5092166;28;20052;-73
2022/12/23 03:33:21;;;;;;;267.88;32.63;;;6.90;99.90;;;;;;5093395;28;20472;-74
2022/12/23 03:35:51;;;;;;;205.05;30.92;;;6.60;99.90;;;;;;5093390;28;20043;-74
2022/12/23 03:38:18;;;;;;;141.18;29.67;;;6.70;99.90;;;;;;5093665;28;20136;-74
2022/12/23 03:40:59;;;;;;;174.43;30.45;;;6.90;99.90;;;;;;5093302;28;20054;-73
2022/12/23 03:43:42;;;;;;;256.85;32.67;;;6.70;99.90;;;;;;5093291;28;20550;-73
2022/12/23 03:46:16;;;;;;;186.25;30.92;;;6.80;99.90;;;;;;5093190;28;20046;-73
2022/12/23 03:48:47;;;;;;;192.02;30.88;;;7.10;99.90;;;;;;5092936;28;20075;-73
2022/12/23 03:51:19;;;;;;;172.88;30.88;;;6.50;99.90;;;;;;5093098;28;20180;-73
2022/12/23 03:53:52;;;;;;;239.57;32.58;;;6.80;99.90;;;;;;5093121;28;20048;-73
2022/12/23 03:56:24;;;;;;;172.88;28.80;;;7.00;99.90;;;;;;5093427;28;20123;-73
2022/12/23 03:58:53;;;;;;;193.20;29.75;;;7.00;99.90;;;;;;5091706;28;20048;-73
2022/12/23 04:01:34;;;;;;;283.10;33.38;;;6.90;99.90;;;;;;5092853;28;20622;-73
2022/12/23 04:04:07;;;;;;;199.82;30.27;;;6.80;99.90;;;;;;5092854;28;20491;-73
2022/12/23 04:07:05;;;;;;;212.70;30.45;;;6.90;99.90;;;;;;5091897;28;20396;-73
2022/12/23 04:09:31;;;;;;;174.07;29.50;;;7.00;99.90;;;;;;5092133;28;20063;-73
2022/12/23 04:11:57;;;;;;;202.55;31.20;;;6.60;99.90;;;;;;5092679;28;20396;-71
2022/12/23 04:14:23;;;;;;;156.07;26.83;;;6.90;99.90;;;;;;5091386;28;20040;-72
2022/12/23 04:16:53;;;;;;;219.23;30.27;;;7.10;99.90;;;;;;5091054;28;20043;-72
2022/12/23 04:19:18;;;;;;;161.55;28.55;;;6.90;99.90;;;;;;5091553;28;20127;-72
2022/12/23 04:21:44;;;;;;;156.07;28.08;;;6.90;99.90;;;;;;5074706;28;20135;-72
2022/12/23 04:24:10;;;;;;;171.90;27.58;;;7.60;99.90;;;;;;5092533;28;20127;-73
2022/12/23 04:26:36;;;;;;;166.18;27.77;;;6.80;99.90;;;;;;5091092;28;20051;-73
2022/12/23 04:29:01;;;;;;;152.60;28.17;;;6.90;99.90;;;;;;5092392;28;20498;-73
2022/12/23 04:31:27;;;;;;;149.48;28.23;;;7.00;99.90;;;;;;5090562;28;20147;-73
2022/12/23 04:33:53;;;;;;;194.98;28.60;;;7.20;99.90;;;;;;5092391;28;20044;-73
2022/12/23 04:36:18;;;;;;;136.20;26.95;;;7.10;99.90;;;;;;5092320;28;20040;-73
2022/12/23 04:38:44;;;;;;;171.57;29.10;;;7.40;99.90;;;;;;5092287;28;20087;-73
2022/12/23 04:41:10;;;;;;;128.07;27.83;;;6.50;99.90;;;;;;5092256;28;20472;-73
2022/12/23 04:43:35;;;;;;;161.02;26.13;;;6.50;99.90;;;;;;5092261;28;20051;-73
2022/12/23 04:46:01;;;;;;;179.60;30.08;;;6.70;99.90;;;;;;5091920;28;20048;-73
2022/12/23 04:48:27;;;;;;;167.50;27.65;;;7.00;99.90;;;;;;5074232;28;20044;-73
2022/12/23 04:50:52;;;;;;;149.55;27.45;;;6.50;99.90;;;;;;5074130;28;20044;-73
2022/12/23 04:53:18;;;;;;;131.10;26.27;;;6.90;99.90;;;;;;5092032;28;20036;-73
2022/12/23 04:55:48;;;;;;;118.47;26.58;;;6.60;99.90;;;;;;5090989;28;20080;-73
2022/12/23 04:58:13;;;;;;;153.00;28.40;;;6.70;99.90;;;;;;5090929;28;20112;-73
2022/12/23 05:00:39;;;;;;;136.45;27.45;;;6.80;99.90;;;;;;5091748;28;20065;-73
2022/12/23 05:03:05;;;;;;;125.97;27.35;;;6.90;99.90;;;;;;5090964;28;20186;-73
2022/12/23 05:05:30;;;;;;;148.80;27.73;;;6.80;99.90;;;;;;5091982;28;20392;-73
2022/12/23 05:08:03;;;;;;;156.07;27.50;;;6.80;99.90;;;;;;5074052;28;20079;-73
2022/12/23 05:10:28;;;;;;;181.45;28.58;;;6.80;99.90;;;;;;5093723;28;20116;-72
2022/12/23 05:12:54;;;;;;;148.13;26.17;;;7.00;99.90;;;;;;5096167;28;20185;-72
2022/12/23 05:15:20;;;;;;;139.85;27.20;;;6.70;99.90;;;;;;5095880;28;20116;-72
2022/12/23 05:17:45;;;;;;;233.02;29.52;;;7.10;99.90;;;;;;5096112;28;20048;-72
2022/12/23 05:20:11;;;;;;;232.93;29.08;;;7.00;99.90;;;;;;5096014;28;20521;-72
2022/12/23 05:22:37;;;;;;;292.63;29.40;;;6.90;99.90;;;;;;5095955;28;20056;-73
2022/12/23 05:25:03;;;;;;;415.75;30.20;;;6.80;99.90;;;;;;5095890;28;20048;-73
2022/12/23 05:27:28;;;;;;;467.67;31.30;;;7.00;99.90;;;;;;5095854;28;20044;-73
2022/12/23 05:29:54;;;;;;;564.20;33.95;;;6.90;99.90;;;;;;5094121;28;20040;-73
2022/12/23 05:32:19;;;;;;;555.15;33.30;;;6.60;99.90;;;;;;5095599;28;20087;-73
2022/12/23 05:34:45;;;;;;;514.38;32.53;;;6.70;99.90;;;;;;5094734;28;20082;-73
2022/12/23 05:37:11;;;;;;;502.80;30.75;;;6.60;99.90;;;;;;5095660;28;20055;-72
2022/12/23 05:39:37;;;;;;;547.17;31.73;;;6.70;99.90;;;;;;5095703;28;20054;-73
2022/12/23 05:42:02;;;;;;;672.97;35.80;;;6.70;99.90;;;;;;5095671;28;20388;-73
2022/12/23 05:44:28;;;;;;;630.97;33.38;;;6.90;99.90;;;;;;5094322;28;20044;-73
2022/12/23 05:46:54;;;;;;;657.53;34.30;;;6.60;99.90;;;;;;5095841;28;20051;-73
2022/12/23 05:49:19;;;;;;;554.88;32.53;;;6.50;99.90;;;;;;5095650;28;20040;-73
2022/12/23 05:51:45;;;;;;;544.53;28.35;;;6.60;99.90;;;;;;5094451;28;20527;-74
2022/12/23 05:54:10;;;;;;;373.00;25.35;;;6.30;99.90;;;;;;5095458;28;20384;-73
2022/12/23 05:56:36;;;;;;;526.17;29.92;;;6.60;99.90;;;;;;5094386;28;20051;-73
2022/12/23 05:59:02;;;;;;;521.08;30.67;;;6.80;99.90;;;;;;5095028;28;20092;-73
2022/12/23 06:01:27;;;;;;;160.57;20.70;;;6.40;99.90;;;;;;5095408;28;20047;-73
2022/12/23 06:03:53;;;;;;;170.52;20.90;;;6.50;99.90;;;;;;5095222;28;20043;-73
2022/12/23 06:06:19;;;;;;;176.98;21.83;;;6.50;99.90;;;;;;5094175;28;20044;-73
2022/12/23 06:08:44;;;;;;;158.05;19.92;;;6.50;99.90;;;;;;5095097;28;20053;-72
2022/12/23 06:11:11;;;;;;;138.35;19.70;;;6.20;99.90;;;;;;5095015;28;20044;-73
2022/12/23 06:13:37;;;;;;;117.97;18.42;;;6.30;99.90;;;;;;5094805;28;20059;-72
2022/12/23 06:16:03;;;;;;;84.65;16.67;;;6.40;99.90;;;;;;5094937;28;20048;-72
2022/12/23 06:18:29;;;;;;;80.15;16.75;;;5.90;99.90;;;;;;5094962;28;20488;-72
2022/12/23 06:20:54;;;;;;;106.38;18.08;;;6.40;99.90;;;;;;5093467;28;20059;-72
2022/12/23 06:23:20;;;;;;;119.30;17.33;;;6.30;99.90;;;;;;5094979;28;20055;-73
2022/12/23 06:25:46;;;;;;;123.25;18.33;;;6.10;99.90;;;;;;5094237;28;20135;-73
2022/12/23 06:28:11;;;;;;;131.32;19.27;;;6.20;99.90;;;;;;5094443;28;20445;-73
2022/12/23 06:30:37;;;;;;;93.68;16.73;;;6.50;99.90;;;;;;5094602;28;20044;-73
2022/12/23 06:33:03;;;;;;;76.88;17.25;;;6.00;99.90;;;;;;5094648;28;20075;-73
2022/12/23 06:35:28;;;;;;;112.28;17.92;;;6.30;99.90;;;;;;5094251;28;20514;-73
2022/12/23 06:37:54;;;;;;;117.53;17.50;;;6.50;99.90;;;;;;5093498;28;20044;-73
2022/12/23 06:40:20;;;;;;;97.90;17.27;;;6.60;99.90;;;;;;5094549;28;20048;-73
2022/12/23 06:42:46;;;;;;;92.85;16.67;;;6.40;99.90;;;;;;5093186;28;20044;-73
2022/12/23 06:45:12;;;;;;;98.22;17.38;;;6.20;99.90;;;;;;5094433;28;20055;-73
2022/12/23 06:47:38;;;;;;;88.63;15.70;;;6.40;99.90;;;;;;5094388;28;20540;-73
2022/12/23 06:50:04;;;;;;;83.18;16.23;;;6.40;99.90;;;;;;5092968;28;20132;-73
2022/12/23 06:52:29;;;;;;;;;;;6.20;99.90;;;;;;5094752;28;20052;-73
2022/12/23 06:54:55;;;;;;;62.08;13.68;;;6.10;99.90;;;;;;5094243;28;20279;-73
2022/12/23 06:57:21;;;;;;;90.18;15.40;;;6.40;99.90;;;;;;5075955;28;20048;-73
2022/12/23 06:59:46;;;;;;;86.18;14.75;;;6.20;99.90;;;;;;5094227;28;20048;-73
2022/12/23 07:02:12;;;;;;;59.90;14.10;;;6.50;99.90;;;;;;5094101;28;20044;-73
2022/12/23 07:04:38;;;;;;;67.60;14.52;;;6.30;99.90;;;;;;5094048;28;20437;-73
2022/12/23 07:07:04;;;;;;;85.88;14.02;;;6.50;99.90;;;;;;5092704;28;20044;-73
2022/12/23 07:09:29;;;;;;;76.00;13.85;;;6.10;99.90;;;;;;5093977;28;20044;-73
2022/12/23 07:11:55;;;;;;;66.28;14.57;;;6.30;99.90;;;;;;5093257;28;20047;-73
2022/12/23 07:14:21;;;;;;;60.88;12.75;;;6.20;99.90;;;;;;5092508;28;20040;-73
2022/12/23 07:16:47;;;;;;;68.03;13.65;;;6.40;99.90;;;;;;5093569;28;20056;-73
2022/12/23 07:19:12;;;;;;;60.40;13.55;;;6.30;99.90;;;;;;5093801;28;20044;-73
2022/12/23 07:21:38;;;;;;;57.00;12.13;;;6.50;99.90;;;;;;5093667;28;20113;-73
2022/12/23 07:24:04;;;;;;;58.20;12.20;;;6.30;99.90;;;;;;5093674;28;20048;-73
2022/12/23 07:26:30;;;;;;;59.67;13.65;;;6.80;99.90;;;;;;5093364;28;20101;-73
2022/12/23 07:28:56;;;;;;;53.88;12.77;;;6.40;99.90;;;;;;5092262;28;20039;-73
2022/12/23 07:31:22;;;;;;;62.75;14.23;;;6.50;99.90;;;;;;5093492;28;20055;-70
2022/12/23 07:33:47;;;;;;;56.22;13.85;;;6.50;99.90;;;;;;5092949;28;20087;-72
2022/12/23 07:36:13;;;;;;;70.97;15.30;;;6.40;99.90;;;;;;5093456;28;20044;-73
2022/12/23 07:38:39;;;;;;;54.22;12.88;;;6.60;99.90;;;;;;5092165;28;20044;-73
2022/12/23 07:41:04;;;;;;;81.45;15.73;;;6.50;99.90;;;;;;5092055;28;20126;-73
2022/12/23 07:43:30;;;;;;;78.00;14.80;;;6.80;99.90;;;;;;5093480;28;20529;-73
2022/12/23 07:45:56;;;;;;;76.97;14.70;;;6.70;99.90;;;;;;5093527;28;20472;-73
2022/12/23 07:48:22;;;;;;;88.95;14.88;;;6.40;99.90;;;;;;5093221;28;20044;-73
2022/12/23 07:50:47;;;;;;;80.25;15.50;;;6.40;99.90;;;;;;5093115;28;20036;-72
2022/12/23 07:53:13;;;;;;;54.90;14.20;;;6.50;99.90;;;;;;5075237;28;20211;-72
2022/12/23 07:55:38;;;;;;;70.15;13.63;;;6.50;99.90;;;;;;5092876;28;20055;-73
2022/12/23 07:58:04;;;;;;;76.90;13.73;;;6.50;99.90;;;;;;5093027;28;20123;-73
2022/12/23 08:00:30;;;;;;;71.47;15.02;;;6.60;99.90;;;;;;5093041;28;20044;-73
2022/12/23 08:02:55;;;;;;;65.05;14.10;;;6.50;99.90;;;;;;5092695;28;20040;-73
2022/12/23 08:05:21;;;;;;;82.68;14.70;;;6.50;99.90;;;;;;5092895;28;20044;-72
2022/12/23 08:07:48;;;;;;;75.97;13.73;;;6.40;99.90;;;;;;5092891;28;20488;-73
2022/12/23 08:10:14;;;;;;;55.13;13.35;;;6.40;99.90;;;;;;5092495;28;20052;-73
2022/12/23 08:12:40;;;;;;;80.35;13.77;;;6.20;99.90;;;;;;5092714;28;20070;-73
2022/12/23 08:15:06;;;;;;;54.58;12.73;;;6.60;99.90;;;;;;5092687;28;20055;-72
2022/12/23 08:17:32;;;;;;;57.13;13.52;;;6.70;99.90;;;;;;5091320;28;20446;-72
2022/12/23 08:19:58;;;;;;;50.92;13.05;;;6.60;99.90;;;;;;5092659;28;20040;-72
2022/12/23 08:22:24;;;;;;;60.67;14.73;;;6.40;99.90;;;;;;5092579;28;20404;-72
2022/12/23 08:24:49;;;;;;;59.78;13.63;;;6.70;99.90;;;;;;5091244;28;20159;-72
2022/12/23 08:27:15;;;;;;;61.28;14.05;;;6.70;99.90;;;;;;5092469;28;20135;-72
2022/12/23 08:29:41;;;;;;;58.58;13.85;;;6.60;99.90;;;;;;5074437;28;20052;-73
2022/12/23 08:32:07;;;;;;;54.03;12.32;;;6.90;99.90;;;;;;5092299;28;20062;-73
2022/12/23 08:34:34;;;;;;;66.40;14.25;;;6.90;99.90;;;;;;5090823;28;20062;-73
2022/12/23 08:37:00;;;;;;;;;;;6.90;99.90;;;;;;5091549;28;20136;-73
2022/12/23 08:39:25;;;;;;;48.45;12.73;;;6.70;99.90;;;;;;5092032;28;19963;-72
2022/12/23 08:41:52;;;;;;;57.70;13.52;;;6.80;99.90;;;;;;5092307;28;20620;-72
2022/12/23 08:44:18;;;;;;;56.60;13.98;;;6.80;99.90;;;;;;5091516;28;20048;-73
2022/12/23 08:46:43;;;;;;;58.22;13.65;;;6.80;99.90;;;;;;5092159;28;20345;-72
2022/12/23 08:49:09;;;;;;;52.15;13.85;;;6.40;99.90;;;;;;5090960;28;20461;-72
2022/12/23 08:51:36;;;;;;;85.65;15.18;;;6.70;99.90;;;;;;5092127;28;20036;-72
2022/12/23 08:54:02;;;;;;;78.78;15.15;;;6.60;99.90;;;;;;5091828;28;20043;-72
2022/12/23 08:56:32;;;;;;;67.60;14.63;;;6.60;99.90;;;;;;5092079;28;20047;-73
2022/12/23 08:58:57;;;;;;;56.53;13.93;;;6.50;99.90;;;;;;5091711;28;20543;-73
2022/12/23 09:01:25;;;;;;;65.97;15.35;;;6.90;99.90;;;;;;5092046;28;20137;-73
2022/12/23 09:03:51;;;;;;;52.95;14.02;;;5.70;99.90;;;;;;5092048;28;20048;-73
2022/12/23 09:06:26;;;;;;;61.90;15.30;;;7.60;99.90;;;;;;5091983;28;20040;-73
2022/12/23 09:08:53;;;;;;;67.43;15.63;;;6.70;99.90;;;;;;5090639;28;20083;-73
2022/12/23 09:11:22;;;;;;;74.00;16.40;;;6.80;99.90;;;;;;5090498;28;20051;-73
2022/12/23 09:13:48;;;;;;;64.07;15.68;;;6.90;99.90;;;;;;5091856;28;20047;-73
2022/12/23 09:16:14;;;;;;;88.28;17.10;;;6.80;99.90;;;;;;5090618;28;20136;-73
2022/12/23 09:18:40;;;;;;;;;;;6.80;99.90;;;;;;5092303;28;20131;-73
2022/12/23 09:21:12;;;;;;;63.97;16.65;;;6.70;99.90;;;;;;5091860;28;20010;-73
2022/12/23 09:23:38;;;;;;;74.93;17.10;;;6.70;99.90;;;;;;5091595;28;20048;-73
2022/12/23 09:26:05;;;;;;;76.47;17.55;;;6.70;99.90;;;;;;5090734;28;20117;-73
2022/12/23 09:28:31;;;;;;;76.03;18.45;;;7.00;99.90;;;;;;5091754;28;20058;-73
2022/12/23 09:30:56;;;;;;;72.18;18.27;;;7.10;99.90;;;;;;5091739;28;20040;-73
2022/12/23 09:33:22;;;;;;;68.38;17.20;;;7.10;99.90;;;;;;5090114;28;20492;-73
2022/12/23 09:35:48;;;;;;;63.03;17.80;;;7.00;99.90;;;;;;5091218;28;20109;-74
2022/12/23 09:38:14;;;;;;;71.95;18.23;;;6.80;99.90;;;;;;5091418;28;20044;-73
2022/12/23 09:40:41;;;;;;;100.18;19.58;;;6.80;99.90;;;;;;5090873;28;20059;-72
2022/12/23 09:43:36;;;;;;;81.95;18.67;;;7.50;99.90;;;;;;5091762;28;20040;-73
2022/12/23 09:46:07;;;;;;;76.15;18.45;;;7.40;99.90;;;;;;5091001;28;20098;-72
2022/12/23 09:48:44;;;;;;;75.68;17.90;;;7.30;99.90;;;;;;5091722;28;20094;-72
2022/12/23 09:51:10;;;;;;;;;;;7.20;99.90;;;;;;5090687;28;20040;-73
2022/12/23 09:54:03;;;;;;;57.33;16.40;;;7.20;99.90;;;;;;5091652;28;19924;-73
2022/12/23 09:56:40;;;;;;;65.15;17.10;;;7.30;99.90;;;;;;5092894;28;20373;-72
2022/12/23 09:59:32;;;;;;;58.03;16.77;;;7.20;99.90;;;;;;5095370;28;20051;-72
2022/12/23 10:02:29;;;;;;;59.65;17.10;;;7.30;99.90;;;;;;5095283;28;20412;-73
2022/12/23 10:05:26;;;;;;;60.17;17.33;;;7.20;99.90;;;;;;5068638;28;20060;-72
2022/12/23 10:08:06;;;;;;;65.05;17.27;;;7.30;99.90;;;;;;5094915;28;20496;-73
2022/12/23 10:10:39;;;;;;;53.90;16.33;;;7.40;99.90;;;;;;5095114;28;20453;-72
2022/12/23 10:13:10;;;;;;;54.08;16.42;;;7.50;99.90;;;;;;5095053;28;20062;-72
2022/12/23 10:15:40;;;;;;;50.88;15.70;;;7.60;99.90;;;;;;5094715;28;20393;-73
2022/12/23 10:18:19;;;;;;;51.88;15.95;;;7.10;99.90;;;;;;5094950;28;20527;-72
2022/12/23 10:21:17;;;;;;;52.88;15.07;;;7.40;99.90;;;;;;5094629;28;20172;-72
2022/12/23 10:23:48;;;;;;;50.50;14.45;;;7.90;99.90;;;;;;5092791;28;20155;-72
2022/12/23 10:26:38;;;;;;;50.20;14.85;;;7.70;99.90;;;;;;5095110;28;20055;-72
2022/12/23 10:29:14;;;;;;;56.83;15.00;;;8.30;99.90;;;;;;5093706;28;20048;-73
2022/12/23 10:32:20;;;;;;;51.83;15.30;;;7.70;99.90;;;;;;5094282;28;20044;-72
2022/12/23 10:35:08;;;;;;;47.75;14.60;;;7.70;99.90;;;;;;5093559;28;20516;-72
2022/12/23 10:38:09;;;;;;;48.08;15.40;;;7.70;99.90;;;;;;5094663;28;20135;-72
2022/12/23 10:40:58;;;;;;;36.70;13.48;;;7.60;99.90;;;;;;5094595;28;20044;-72
2022/12/23 10:43:49;;;;;;;58.83;14.85;;;7.70;99.90;;;;;;5094553;28;20415;-72
2022/12/23 10:46:35;;;;;;;66.47;14.65;;;8.00;99.90;;;;;;5094438;28;20109;-72
2022/12/23 10:49:28;;;;;;;45.08;13.70;;;7.70;99.90;;;;;;5094228;28;20147;-72
2022/12/23 10:52:04;;;;;;;39.35;14.52;;;7.90;99.90;;;;;;5076246;28;20047;-72
2022/12/23 10:54:32;;;;;;;62.30;17.33;;;7.80;99.90;;;;;;5094326;28;20123;-72
2022/12/23 10:56:59;;;;;;;38.65;14.70;;;8.00;99.90;;;;;;5094237;28;20047;-72
2022/12/23 10:59:29;;;;;;;47.35;15.35;;;7.90;99.90;;;;;;5094094;28;20613;-72
2022/12/23 11:02:04;;;;;;;45.88;13.20;;;8.20;99.90;;;;;;5094085;28;20054;-72
2022/12/23 11:04:35;;;;;;;35.33;11.88;;;8.20;99.90;;;;;;5093858;28;20052;-72
2022/12/23 11:07:02;;;;;;;40.22;11.30;;;7.80;99.90;;;;;;5092439;28;20052;-72
2022/12/23 11:09:56;;;;;;;38.38;11.55;;;8.00;99.90;;;;;;5093450;28;20052;-72
2022/12/23 11:12:23;;;;;;;45.88;12.52;;;8.20;99.90;;;;;;5093889;28;20408;-73
2022/12/23 11:14:52;;;;;;;41.08;13.60;;;8.00;99.90;;;;;;5093927;28;20044;-72
2022/12/23 11:17:24;;;;;;;40.13;14.10;;;8.10;99.90;;;;;;5093494;28;20105;-75
2022/12/23 11:20:14;;;;;;;42.28;12.95;;;8.20;99.90;;;;;;5093787;28;20127;-71
2022/12/23 11:23:21;;;;;;;36.85;13.10;;;8.10;99.90;;;;;;5093741;28;20059;-72
2022/12/23 11:25:47;;;;;;;41.10;11.95;;;8.10;99.90;;;;;;5093604;28;20101;-72
2022/12/23 11:28:17;;;;;;;35.72;12.20;;;8.00;99.90;;;;;;5092590;28;20044;-72
2022/12/23 11:30:53;;;;;;;34.17;12.63;;;8.40;99.90;;;;;;5093530;28;20484;-72
2022/12/23 11:33:28;;;;;;;34.00;12.93;;;8.30;99.90;;;;;;5093300;28;20056;-72
2022/12/23 11:36:11;;;;;;;42.38;12.73;;;8.10;99.90;;;;;;5092552;28;20134;-72
2022/12/23 11:38:49;;;;;;;35.47;11.82;;;8.00;99.90;;;;;;5093648;28;20400;-72
2022/12/23 11:41:27;;;;;;;41.17;13.18;;;7.90;99.90;;;;;;5093487;28;20411;-71
2022/12/23 11:44:10;;;;;;;43.80;12.82;;;8.00;99.90;;;;;;5093429;28;20499;-72
2022/12/23 11:46:35;;;;;;;41.50;12.73;;;8.00;99.90;;;;;;5093029;28;20094;-72
2022/12/23 11:49:16;;;;;;;32.90;12.00;;;8.00;99.90;;;;;;5093287;28;20087;-72
2022/12/23 11:51:44;;;;;;;39.38;12.00;;;7.90;99.90;;;;;;5093403;28;20059;-72
2022/12/23 11:54:19;;;;;;;43.63;13.38;;;7.80;99.90;;;;;;5093149;28;20123;-72
2022/12/23 11:56:49;;;;;;;48.42;15.40;;;8.20;99.90;;;;;;5092114;28;20061;-72
2022/12/23 11:59:26;;;;;;;50.58;13.02;;;8.00;99.90;;;;;;5092013;28;20051;-72
2022/12/23 12:01:52;;;;;;;;;;;8.20;99.90;;;;;;5093233;28;20044;-72
2022/12/23 12:04:20;;;;;;;48.08;13.85;;;;;;;;;;5093015;28;19937;-72
2022/12/23 12:06:47;;;;;;;36.65;13.40;;;8.10;99.90;;;;;;5092896;28;20044;-71
2022/12/23 12:09:13;;;;;;;36.15;13.80;;;8.10;99.90;;;;;;5092863;28;20047;-72
2022/12/23 12:11:47;;;;;;;44.35;14.45;;;8.20;99.90;;;;;;5092738;28;20101;-72
2022/12/23 12:14:28;;;;;;;37.28;14.65;;;7.90;99.90;;;;;;5092818;28;20112;-72
2022/12/23 12:17:01;;;;;;;37.13;13.00;;;8.20;99.90;;;;;;5092832;28;20054;-72
2022/12/23 12:19:55;;;;;;;44.75;13.65;;;8.00;99.90;;;;;;5092550;28;20040;-72
2022/12/23 12:22:50;;;;;;;38.67;12.85;;;8.10;99.90;;;;;;5092332;28;20507;-72
2022/12/23 12:25:22;;;;;;;40.72;13.45;;;8.30;99.90;;;;;;5074240;28;20082;-72
2022/12/23 12:28:01;;;;;;;41.90;13.30;;;8.20;99.90;;;;;;5092524;28;20040;-72
2022/12/23 12:30:35;;;;;;;44.22;12.48;;;8.20;99.90;;;;;;5091175;28;20051;-72
2022/12/23 12:33:13;;;;;;;36.75;13.02;;;8.10;99.90;;;;;;5092474;28;20098;-72
2022/12/23 12:35:55;;;;;;;35.70;12.70;;;8.10;99.90;;;;;;5092483;28;20142;-72
2022/12/23 12:38:33;;;;;;;36.45;13.25;;;9.80;99.90;;;;;;5092407;28;20126;-72
2022/12/23 12:41:07;;;;;;;40.50;13.43;;;8.10;99.90;;;;;;5092403;28;20040;-72
2022/12/23 12:43:49;;;;;;;42.33;14.05;;;8.40;99.90;;;;;;5092352;28;20144;-72
2022/12/23 12:46:34;;;;;;;34.88;13.10;;;8.50;99.90;;;;;;5092020;28;20091;-72
2022/12/23 12:49:35;;;;;;;38.17;13.10;;;8.20;99.90;;;;;;5092269;28;20051;-72
2022/12/23 12:52:18;;;;;;;42.20;13.95;;;8.20;99.90;;;;;;5084790;28;20056;-73
2022/12/23 12:55:05;;;;;;;43.85;13.48;;;8.40;99.90;;;;;;5092315;28;20080;-72
2022/12/23 12:57:34;;;;;;;37.40;14.52;;;8.20;99.90;;;;;;5092210;28;20083;-72
2022/12/23 13:00:01;;;;;;;37.75;14.18;;;7.90;99.90;;;;;;5091874;28;20123;-72
2022/12/23 13:03:00;;;;;;;41.20;17.08;;;8.20;99.90;;;;;;5092127;28;20032;-72
2022/12/23 13:05:53;;;;;;;42.67;17.50;;;7.90;99.90;;;;;;5092095;28;20055;-72
2022/12/23 13:09:01;;;;;;;41.90;16.13;;;8.30;99.90;;;;;;5092066;28;20048;-72
2022/12/23 13:11:56;;;;;;;41.15;14.20;;;7.90;99.90;;;;;;5091923;28;20044;-72
2022/12/23 13:14:59;;;;;;;34.33;13.93;;;8.20;99.90;;;;;;5076567;28;20064;-72
2022/12/23 13:17:38;;;;;;;43.53;15.27;;;8.20;99.90;;;;;;5091994;28;20051;-72
2022/12/23 13:20:23;;;;;;;38.97;14.68;;;8.30;99.90;;;;;;5092061;28;20432;-72
2022/12/23 13:22:54;;;;;;;41.33;15.48;;;7.80;99.90;;;;;;5092269;28;20086;-72
2022/12/23 13:25:33;;;;;;;40.97;15.20;;;7.90;99.90;;;;;;5091013;28;20052;-71
2022/12/23 13:28:30;;;;;;;43.83;15.95;;;7.80;99.90;;;;;;5091658;28;20055;-72
2022/12/23 13:31:10;;;;;;;48.95;16.98;;;8.00;99.90;;;;;;5069155;28;20504;-72
2022/12/23 13:34:02;;;;;;;47.60;16.30;;;8.10;99.90;;;;;;5095734;28;20066;-71
2022/12/23 13:36:43;;;;;;;52.38;18.98;;;8.00;99.90;;;;;;5095930;28;20044;-72